sensor_id;sensor_type;location;lat;lon;timestamp;P1;durP1;ratioP1;P2;durP2;ratioP2
69207;SDS011;70114;47.690;8.898;2024-02-21T00:00:09;6.43;;;1.30;;
69207;SDS011;70114;47.690;8.898;2024-02-21T00:02:37;6.05;;;1.38;;
69207;SDS011;70114;47.690;8.898;2024-02-21T00:05:05;5.83;;;1.23;;
69207;SDS011;70114;47.690;8.898;2024-02-21T00:07:31;6.95;;;1.10;;
69207;SDS011;70114;47.690;8.898;2024-02-21T00:09:56;5.00;;;1.10;;
69207;SDS011;70114;47.690;8.898;2024-02-21T00:12:22;6.30;;;1.27;;
69207;SDS011;70114;47.690;8.898;2024-02-21T00:14:47;7.15;;;0.90;;
69207;SDS011;70114;47.690;8.898;2024-02-21T00:17:13;5.53;;;1.13;;
69207;SDS011;70114;47.690;8.898;2024-02-21T00:19:38;5.80;;;1.30;;
69207;SDS011;70114;47.690;8.898;2024-02-21T00:22:07;7.30;;;1.20;;
69207;SDS011;70114;47.690;8.898;2024-02-21T00:24:33;6.13;;;1.02;;
69207;SDS011;70114;47.690;8.898;2024-02-21T00:26:58;6.67;;;1.10;;
69207;SDS011;70114;47.690;8.898;2024-02-21T00:29:24;5.83;;;0.87;;
69207;SDS011;70114;47.690;8.898;2024-02-21T00:31:52;5.80;;;0.90;;
69207;SDS011;70114;47.690;8.898;2024-02-21T00:34:18;7.00;;;1.10;;
69207;SDS011;70114;47.690;8.898;2024-02-21T00:36:43;6.30;;;0.90;;
69207;SDS011;70114;47.690;8.898;2024-02-21T00:39:08;6.23;;;0.90;;
69207;SDS011;70114;47.690;8.898;2024-02-21T00:41:34;7.83;;;1.03;;
69207;SDS011;70114;47.690;8.898;2024-02-21T00:44:02;6.93;;;1.27;;
69207;SDS011;70114;47.690;8.898;2024-02-21T00:46:27;5.33;;;1.17;;
69207;SDS011;70114;47.690;8.898;2024-02-21T00:48:53;6.27;;;1.20;;
69207;SDS011;70114;47.690;8.898;2024-02-21T00:51:20;5.67;;;0.90;;
69207;SDS011;70114;47.690;8.898;2024-02-21T00:53:46;4.40;;;1.05;;
69207;SDS011;70114;47.690;8.898;2024-02-21T00:56:11;5.40;;;0.80;;
69207;SDS011;70114;47.690;8.898;2024-02-21T00:58:37;8.97;;;0.90;;
69207;SDS011;70114;47.690;8.898;2024-02-21T01:01:02;5.37;;;0.80;;
69207;SDS011;70114;47.690;8.898;2024-02-21T01:03:28;5.13;;;0.60;;
69207;SDS011;70114;47.690;8.898;2024-02-21T01:05:53;8.33;;;0.80;;
69207;SDS011;70114;47.690;8.898;2024-02-21T01:08:19;4.50;;;0.70;;
69207;SDS011;70114;47.690;8.898;2024-02-21T01:10:44;4.90;;;0.80;;
69207;SDS011;70114;47.690;8.898;2024-02-21T01:13:12;5.53;;;0.80;;
69207;SDS011;70114;47.690;8.898;2024-02-21T01:15:38;5.88;;;0.80;;
69207;SDS011;70114;47.690;8.898;2024-02-21T01:18:03;5.03;;;0.90;;
69207;SDS011;70114;47.690;8.898;2024-02-21T01:20:30;5.45;;;0.90;;
69207;SDS011;70114;47.690;8.898;2024-02-21T01:22:55;7.37;;;1.03;;
69207;SDS011;70114;47.690;8.898;2024-02-21T01:25:20;5.73;;;0.70;;
69207;SDS011;70114;47.690;8.898;2024-02-21T01:27:46;5.07;;;0.60;;
69207;SDS011;70114;47.690;8.898;2024-02-21T01:30:11;6.87;;;0.90;;
69207;SDS011;70114;47.690;8.898;2024-02-21T01:32:37;4.50;;;0.63;;
69207;SDS011;70114;47.690;8.898;2024-02-21T01:35:02;6.80;;;0.83;;
69207;SDS011;70114;47.690;8.898;2024-02-21T01:37:28;4.90;;;0.70;;
69207;SDS011;70114;47.690;8.898;2024-02-21T01:39:53;4.83;;;0.67;;
69207;SDS011;70114;47.690;8.898;2024-02-21T01:42:19;4.73;;;0.70;;
69207;SDS011;70114;47.690;8.898;2024-02-21T01:44:44;5.90;;;0.80;;
69207;SDS011;70114;47.690;8.898;2024-02-21T01:47:13;5.20;;;0.70;;
69207;SDS011;70114;47.690;8.898;2024-02-21T01:49:40;4.30;;;0.80;;
69207;SDS011;70114;47.690;8.898;2024-02-21T01:52:06;4.90;;;0.80;;
69207;SDS011;70114;47.690;8.898;2024-02-21T01:54:32;5.30;;;0.70;;
69207;SDS011;70114;47.690;8.898;2024-02-21T01:57:04;4.47;;;0.63;;
69207;SDS011;70114;47.690;8.898;2024-02-21T01:59:30;4.95;;;0.70;;
69207;SDS011;70114;47.690;8.898;2024-02-21T02:01:56;4.83;;;0.90;;
69207;SDS011;70114;47.690;8.898;2024-02-21T02:04:22;5.93;;;0.80;;
69207;SDS011;70114;47.690;8.898;2024-02-21T02:06:48;5.75;;;0.80;;
69207;SDS011;70114;47.690;8.898;2024-02-21T02:09:15;5.43;;;0.70;;
69207;SDS011;70114;47.690;8.898;2024-02-21T02:11:40;5.30;;;0.70;;
69207;SDS011;70114;47.690;8.898;2024-02-21T02:14:08;5.47;;;0.75;;
69207;SDS011;70114;47.690;8.898;2024-02-21T02:16:33;4.67;;;0.70;;
69207;SDS011;70114;47.690;8.898;2024-02-21T02:18:58;5.27;;;0.83;;
69207;SDS011;70114;47.690;8.898;2024-02-21T02:21:29;5.00;;;0.63;;
69207;SDS011;70114;47.690;8.898;2024-02-21T02:23:57;5.40;;;0.60;;
69207;SDS011;70114;47.690;8.898;2024-02-21T02:26:23;7.43;;;0.90;;
69207;SDS011;70114;47.690;8.898;2024-02-21T02:28:49;5.27;;;0.80;;
69207;SDS011;70114;47.690;8.898;2024-02-21T02:31:15;5.80;;;0.68;;
69207;SDS011;70114;47.690;8.898;2024-02-21T02:33:42;5.23;;;0.90;;
69207;SDS011;70114;47.690;8.898;2024-02-21T02:36:08;6.80;;;0.80;;
69207;SDS011;70114;47.690;8.898;2024-02-21T02:38:34;4.20;;;0.60;;
69207;SDS011;70114;47.690;8.898;2024-02-21T02:40:59;4.17;;;0.60;;
69207;SDS011;70114;47.690;8.898;2024-02-21T02:43:25;4.28;;;0.63;;
69207;SDS011;70114;47.690;8.898;2024-02-21T02:45:50;5.60;;;0.80;;
69207;SDS011;70114;47.690;8.898;2024-02-21T02:48:15;3.80;;;0.60;;
69207;SDS011;70114;47.690;8.898;2024-02-21T02:50:41;5.87;;;0.70;;
69207;SDS011;70114;47.690;8.898;2024-02-21T02:53:06;5.03;;;0.73;;
69207;SDS011;70114;47.690;8.898;2024-02-21T02:55:31;4.13;;;0.70;;
69207;SDS011;70114;47.690;8.898;2024-02-21T02:57:57;5.68;;;0.80;;
69207;SDS011;70114;47.690;8.898;2024-02-21T03:00:22;6.37;;;1.00;;
69207;SDS011;70114;47.690;8.898;2024-02-21T03:02:48;5.13;;;0.93;;
69207;SDS011;70114;47.690;8.898;2024-02-21T03:05:18;4.10;;;0.70;;
69207;SDS011;70114;47.690;8.898;2024-02-21T03:07:45;3.60;;;0.60;;
69207;SDS011;70114;47.690;8.898;2024-02-21T03:10:11;4.13;;;0.80;;
69207;SDS011;70114;47.690;8.898;2024-02-21T03:12:37;5.25;;;0.70;;
69207;SDS011;70114;47.690;8.898;2024-02-21T03:15:03;4.87;;;0.97;;
69207;SDS011;70114;47.690;8.898;2024-02-21T03:17:29;6.03;;;1.10;;
69207;SDS011;70114;47.690;8.898;2024-02-21T03:19:55;4.85;;;0.80;;
69207;SDS011;70114;47.690;8.898;2024-02-21T03:22:21;5.43;;;0.83;;
69207;SDS011;70114;47.690;8.898;2024-02-21T03:24:47;5.05;;;0.60;;
69207;SDS011;70114;47.690;8.898;2024-02-21T03:27:12;4.07;;;0.70;;
69207;SDS011;70114;47.690;8.898;2024-02-21T03:29:38;4.43;;;0.70;;
69207;SDS011;70114;47.690;8.898;2024-02-21T03:32:03;5.70;;;0.90;;
69207;SDS011;70114;47.690;8.898;2024-02-21T03:34:32;4.40;;;0.75;;
69207;SDS011;70114;47.690;8.898;2024-02-21T03:36:57;7.33;;;0.97;;
69207;SDS011;70114;47.690;8.898;2024-02-21T03:39:24;4.32;;;0.90;;
69207;SDS011;70114;47.690;8.898;2024-02-21T03:41:49;5.30;;;0.77;;
69207;SDS011;70114;47.690;8.898;2024-02-21T03:44:15;4.82;;;0.75;;
69207;SDS011;70114;47.690;8.898;2024-02-21T03:46:40;4.40;;;0.80;;
69207;SDS011;70114;47.690;8.898;2024-02-21T03:49:06;5.53;;;0.63;;
69207;SDS011;70114;47.690;8.898;2024-02-21T03:51:32;4.27;;;0.77;;
69207;SDS011;70114;47.690;8.898;2024-02-21T03:53:57;4.93;;;0.60;;
69207;SDS011;70114;47.690;8.898;2024-02-21T03:56:23;5.77;;;0.77;;
69207;SDS011;70114;47.690;8.898;2024-02-21T03:58:48;3.93;;;0.70;;
69207;SDS011;70114;47.690;8.898;2024-02-21T04:01:16;5.50;;;0.90;;
69207;SDS011;70114;47.690;8.898;2024-02-21T04:03:42;6.47;;;0.90;;
69207;SDS011;70114;47.690;8.898;2024-02-21T04:06:09;5.22;;;0.95;;
69207;SDS011;70114;47.690;8.898;2024-02-21T04:08:35;5.53;;;1.08;;
69207;SDS011;70114;47.690;8.898;2024-02-21T04:11:01;7.90;;;1.50;;
69207;SDS011;70114;47.690;8.898;2024-02-21T04:13:26;5.47;;;1.20;;
69207;SDS011;70114;47.690;8.898;2024-02-21T04:15:52;5.25;;;0.80;;
69207;SDS011;70114;47.690;8.898;2024-02-21T04:18:20;5.23;;;0.90;;
69207;SDS011;70114;47.690;8.898;2024-02-21T04:20:46;6.00;;;0.77;;
69207;SDS011;70114;47.690;8.898;2024-02-21T04:23:12;5.20;;;1.00;;
69207;SDS011;70114;47.690;8.898;2024-02-21T04:25:37;6.00;;;1.00;;
69207;SDS011;70114;47.690;8.898;2024-02-21T04:28:03;5.43;;;0.77;;
69207;SDS011;70114;47.690;8.898;2024-02-21T04:30:28;6.20;;;1.00;;
69207;SDS011;70114;47.690;8.898;2024-02-21T04:32:54;4.40;;;0.60;;
69207;SDS011;70114;47.690;8.898;2024-02-21T04:35:19;4.87;;;0.60;;
69207;SDS011;70114;47.690;8.898;2024-02-21T04:37:45;4.93;;;0.70;;
69207;SDS011;70114;47.690;8.898;2024-02-21T04:40:10;5.13;;;0.50;;
69207;SDS011;70114;47.690;8.898;2024-02-21T04:42:36;4.27;;;0.60;;
69207;SDS011;70114;47.690;8.898;2024-02-21T04:45:01;9.00;;;1.40;;
69207;SDS011;70114;47.690;8.898;2024-02-21T04:47:27;7.77;;;1.47;;
69207;SDS011;70114;47.690;8.898;2024-02-21T04:49:53;5.47;;;0.70;;
69207;SDS011;70114;47.690;8.898;2024-02-21T04:52:18;8.83;;;2.60;;
69207;SDS011;70114;47.690;8.898;2024-02-21T04:54:44;5.60;;;0.73;;
69207;SDS011;70114;47.690;8.898;2024-02-21T04:57:09;4.23;;;0.53;;
69207;SDS011;70114;47.690;8.898;2024-02-21T04:59:41;5.73;;;0.90;;
69207;SDS011;70114;47.690;8.898;2024-02-21T05:02:08;6.22;;;1.20;;
69207;SDS011;70114;47.690;8.898;2024-02-21T05:04:33;6.67;;;1.40;;
69207;SDS011;70114;47.690;8.898;2024-02-21T05:06:59;6.73;;;1.23;;
69207;SDS011;70114;47.690;8.898;2024-02-21T05:09:26;8.57;;;1.77;;
69207;SDS011;70114;47.690;8.898;2024-02-21T05:11:51;5.63;;;1.00;;
69207;SDS011;70114;47.690;8.898;2024-02-21T05:14:16;5.83;;;0.90;;
69207;SDS011;70114;47.690;8.898;2024-02-21T05:16:42;5.65;;;1.00;;
69207;SDS011;70114;47.690;8.898;2024-02-21T05:19:07;6.80;;;2.07;;
69207;SDS011;70114;47.690;8.898;2024-02-21T05:21:32;11.13;;;4.27;;
69207;SDS011;70114;47.690;8.898;2024-02-21T05:23:58;11.80;;;4.87;;
69207;SDS011;70114;47.690;8.898;2024-02-21T05:26:25;13.32;;;5.40;;
69207;SDS011;70114;47.690;8.898;2024-02-21T05:28:51;15.82;;;7.25;;
69207;SDS011;70114;47.690;8.898;2024-02-21T05:31:19;15.07;;;5.93;;
69207;SDS011;70114;47.690;8.898;2024-02-21T05:33:46;12.63;;;4.97;;
69207;SDS011;70114;47.690;8.898;2024-02-21T05:36:12;13.17;;;5.50;;
69207;SDS011;70114;47.690;8.898;2024-02-21T05:38:37;12.37;;;5.50;;
69207;SDS011;70114;47.690;8.898;2024-02-21T05:41:03;9.07;;;2.93;;
69207;SDS011;70114;47.690;8.898;2024-02-21T05:43:28;7.88;;;2.08;;
69207;SDS011;70114;47.690;8.898;2024-02-21T05:45:55;7.55;;;1.95;;
69207;SDS011;70114;47.690;8.898;2024-02-21T05:48:21;6.33;;;1.63;;
69207;SDS011;70114;47.690;8.898;2024-02-21T05:50:47;8.05;;;2.40;;
69207;SDS011;70114;47.690;8.898;2024-02-21T05:53:13;8.47;;;2.63;;
69207;SDS011;70114;47.690;8.898;2024-02-21T05:55:38;13.13;;;3.03;;
69207;SDS011;70114;47.690;8.898;2024-02-21T05:58:04;19.85;;;6.85;;
69207;SDS011;70114;47.690;8.898;2024-02-21T06:00:30;19.80;;;7.97;;
69207;SDS011;70114;47.690;8.898;2024-02-21T06:02:56;10.60;;;2.97;;
69207;SDS011;70114;47.690;8.898;2024-02-21T06:05:22;17.17;;;5.93;;
69207;SDS011;70114;47.690;8.898;2024-02-21T06:07:47;29.60;;;9.93;;
69207;SDS011;70114;47.690;8.898;2024-02-21T06:10:12;36.97;;;11.20;;
69207;SDS011;70114;47.690;8.898;2024-02-21T06:12:38;21.03;;;7.23;;
69207;SDS011;70114;47.690;8.898;2024-02-21T06:15:03;12.23;;;3.60;;
69207;SDS011;70114;47.690;8.898;2024-02-21T06:17:29;9.80;;;3.00;;
69207;SDS011;70114;47.690;8.898;2024-02-21T06:19:54;13.27;;;4.17;;
69207;SDS011;70114;47.690;8.898;2024-02-21T06:22:20;34.33;;;13.17;;
69207;SDS011;70114;47.690;8.898;2024-02-21T06:24:45;16.80;;;5.37;;
69207;SDS011;70114;47.690;8.898;2024-02-21T06:27:11;10.10;;;3.17;;
69207;SDS011;70114;47.690;8.898;2024-02-21T06:29:36;9.88;;;3.55;;
69207;SDS011;70114;47.690;8.898;2024-02-21T06:32:02;15.30;;;5.77;;
69207;SDS011;70114;47.690;8.898;2024-02-21T06:34:28;26.80;;;9.60;;
69207;SDS011;70114;47.690;8.898;2024-02-21T06:36:53;24.10;;;10.67;;
69207;SDS011;70114;47.690;8.898;2024-02-21T06:39:18;29.20;;;11.50;;
69207;SDS011;70114;47.690;8.898;2024-02-21T06:41:44;18.13;;;7.50;;
69207;SDS011;70114;47.690;8.898;2024-02-21T06:44:09;15.13;;;6.93;;
69207;SDS011;70114;47.690;8.898;2024-02-21T06:46:35;17.50;;;6.33;;
69207;SDS011;70114;47.690;8.898;2024-02-21T06:49:01;17.75;;;6.28;;
69207;SDS011;70114;47.690;8.898;2024-02-21T06:51:28;15.57;;;6.17;;
69207;SDS011;70114;47.690;8.898;2024-02-21T06:53:54;12.15;;;5.55;;
69207;SDS011;70114;47.690;8.898;2024-02-21T06:56:20;13.17;;;4.80;;
69207;SDS011;70114;47.690;8.898;2024-02-21T06:58:45;10.70;;;3.92;;
69207;SDS011;70114;47.690;8.898;2024-02-21T07:01:11;11.13;;;4.17;;
69207;SDS011;70114;47.690;8.898;2024-02-21T07:03:37;14.43;;;3.67;;
69207;SDS011;70114;47.690;8.898;2024-02-21T07:06:02;11.40;;;3.40;;
69207;SDS011;70114;47.690;8.898;2024-02-21T07:08:28;11.43;;;3.45;;
69207;SDS011;70114;47.690;8.898;2024-02-21T07:10:54;11.77;;;4.10;;
69207;SDS011;70114;47.690;8.898;2024-02-21T07:13:19;12.35;;;3.85;;
69207;SDS011;70114;47.690;8.898;2024-02-21T07:15:45;13.37;;;3.93;;
69207;SDS011;70114;47.690;8.898;2024-02-21T07:18:11;9.68;;;3.05;;
69207;SDS011;70114;47.690;8.898;2024-02-21T07:20:36;9.43;;;2.90;;
69207;SDS011;70114;47.690;8.898;2024-02-21T07:23:02;5.97;;;1.30;;
69207;SDS011;70114;47.690;8.898;2024-02-21T07:25:28;6.03;;;1.50;;
69207;SDS011;70114;47.690;8.898;2024-02-21T07:27:53;5.77;;;1.40;;
69207;SDS011;70114;47.690;8.898;2024-02-21T07:30:19;5.70;;;1.40;;
69207;SDS011;70114;47.690;8.898;2024-02-21T07:32:44;6.93;;;1.60;;
69207;SDS011;70114;47.690;8.898;2024-02-21T07:35:09;9.53;;;2.67;;
69207;SDS011;70114;47.690;8.898;2024-02-21T07:37:36;8.45;;;2.42;;
69207;SDS011;70114;47.690;8.898;2024-02-21T07:40:03;41.33;;;18.10;;
69207;SDS011;70114;47.690;8.898;2024-02-21T07:42:30;9.43;;;2.53;;
69207;SDS011;70114;47.690;8.898;2024-02-21T07:44:56;7.32;;;1.55;;
69207;SDS011;70114;47.690;8.898;2024-02-21T07:47:21;6.27;;;1.40;;
69207;SDS011;70114;47.690;8.898;2024-02-21T07:49:47;6.88;;;1.40;;
69207;SDS011;70114;47.690;8.898;2024-02-21T07:52:13;8.93;;;1.43;;
69207;SDS011;70114;47.690;8.898;2024-02-21T07:54:39;8.57;;;2.08;;
69207;SDS011;70114;47.690;8.898;2024-02-21T07:57:06;12.50;;;3.30;;
69207;SDS011;70114;47.690;8.898;2024-02-21T07:59:32;10.67;;;2.80;;
69207;SDS011;70114;47.690;8.898;2024-02-21T08:01:57;8.60;;;1.83;;
69207;SDS011;70114;47.690;8.898;2024-02-21T08:04:23;5.50;;;1.10;;
69207;SDS011;70114;47.690;8.898;2024-02-21T08:06:54;5.93;;;1.20;;
69207;SDS011;70114;47.690;8.898;2024-02-21T08:09:21;6.03;;;0.98;;
69207;SDS011;70114;47.690;8.898;2024-02-21T08:11:47;5.82;;;1.00;;
69207;SDS011;70114;47.690;8.898;2024-02-21T08:14:12;4.93;;;1.00;;
69207;SDS011;70114;47.690;8.898;2024-02-21T08:16:40;5.00;;;0.95;;
69207;SDS011;70114;47.690;8.898;2024-02-21T08:19:05;5.93;;;1.27;;
69207;SDS011;70114;47.690;8.898;2024-02-21T08:21:30;8.30;;;1.00;;
69207;SDS011;70114;47.690;8.898;2024-02-21T08:23:56;4.73;;;0.70;;
69207;SDS011;70114;47.690;8.898;2024-02-21T08:26:21;5.73;;;0.90;;
69207;SDS011;70114;47.690;8.898;2024-02-21T08:28:47;5.00;;;0.90;;
69207;SDS011;70114;47.690;8.898;2024-02-21T08:31:18;5.57;;;0.80;;
69207;SDS011;70114;47.690;8.898;2024-02-21T08:33:43;5.30;;;1.03;;
69207;SDS011;70114;47.690;8.898;2024-02-21T08:36:09;4.77;;;0.87;;
69207;SDS011;70114;47.690;8.898;2024-02-21T08:38:41;7.03;;;1.00;;
69207;SDS011;70114;47.690;8.898;2024-02-21T08:41:07;4.07;;;0.60;;
69207;SDS011;70114;47.690;8.898;2024-02-21T08:43:32;4.60;;;0.90;;
69207;SDS011;70114;47.690;8.898;2024-02-21T08:46:00;4.67;;;0.60;;
69207;SDS011;70114;47.690;8.898;2024-02-21T08:48:25;5.87;;;0.70;;
69207;SDS011;70114;47.690;8.898;2024-02-21T08:50:50;5.57;;;1.00;;
69207;SDS011;70114;47.690;8.898;2024-02-21T08:53:16;4.30;;;0.60;;
69207;SDS011;70114;47.690;8.898;2024-02-21T08:55:41;24.07;;;10.00;;
69207;SDS011;70114;47.690;8.898;2024-02-21T08:58:09;10.70;;;3.95;;
69207;SDS011;70114;47.690;8.898;2024-02-21T09:00:34;5.63;;;0.83;;
69207;SDS011;70114;47.690;8.898;2024-02-21T09:02:59;5.00;;;0.90;;
69207;SDS011;70114;47.690;8.898;2024-02-21T09:05:25;3.93;;;0.70;;
69207;SDS011;70114;47.690;8.898;2024-02-21T09:07:50;4.70;;;0.80;;
69207;SDS011;70114;47.690;8.898;2024-02-21T09:10:16;3.83;;;0.70;;
69207;SDS011;70114;47.690;8.898;2024-02-21T09:12:41;3.70;;;0.60;;
69207;SDS011;70114;47.690;8.898;2024-02-21T09:15:06;5.37;;;0.50;;
69207;SDS011;70114;47.690;8.898;2024-02-21T09:17:32;4.63;;;0.70;;
69207;SDS011;70114;47.690;8.898;2024-02-21T09:19:57;4.70;;;0.73;;
69207;SDS011;70114;47.690;8.898;2024-02-21T09:22:27;4.25;;;0.57;;
69207;SDS011;70114;47.690;8.898;2024-02-21T09:24:53;5.07;;;0.50;;
69207;SDS011;70114;47.690;8.898;2024-02-21T09:27:18;3.37;;;0.50;;
69207;SDS011;70114;47.690;8.898;2024-02-21T09:29:43;3.83;;;0.50;;
69207;SDS011;70114;47.690;8.898;2024-02-21T09:32:09;3.47;;;0.47;;
69207;SDS011;70114;47.690;8.898;2024-02-21T09:34:34;3.70;;;0.60;;
69207;SDS011;70114;47.690;8.898;2024-02-21T09:36:59;4.10;;;0.67;;
69207;SDS011;70114;47.690;8.898;2024-02-21T09:39:25;4.00;;;0.60;;
69207;SDS011;70114;47.690;8.898;2024-02-21T09:41:53;4.30;;;0.68;;
69207;SDS011;70114;47.690;8.898;2024-02-21T09:44:21;5.07;;;1.00;;
69207;SDS011;70114;47.690;8.898;2024-02-21T09:46:57;5.07;;;0.70;;
69207;SDS011;70114;47.690;8.898;2024-02-21T09:49:31;4.90;;;0.75;;
69207;SDS011;70114;47.690;8.898;2024-02-21T09:52:06;4.47;;;0.50;;
69207;SDS011;70114;47.690;8.898;2024-02-21T09:54:32;7.15;;;1.20;;
69207;SDS011;70114;47.690;8.898;2024-02-21T09:56:59;6.13;;;0.60;;
69207;SDS011;70114;47.690;8.898;2024-02-21T09:59:26;4.97;;;0.80;;
69207;SDS011;70114;47.690;8.898;2024-02-21T10:01:52;5.22;;;0.70;;
69207;SDS011;70114;47.690;8.898;2024-02-21T10:04:19;4.80;;;0.60;;
69207;SDS011;70114;47.690;8.898;2024-02-21T10:06:45;4.78;;;0.70;;
69207;SDS011;70114;47.690;8.898;2024-02-21T10:09:23;4.30;;;0.80;;
69207;SDS011;70114;47.690;8.898;2024-02-21T10:11:52;3.92;;;0.63;;
69207;SDS011;70114;47.690;8.898;2024-02-21T10:14:19;6.85;;;0.70;;
69207;SDS011;70114;47.690;8.898;2024-02-21T10:16:46;5.77;;;0.70;;
69207;SDS011;70114;47.690;8.898;2024-02-21T10:19:19;4.43;;;0.70;;
69207;SDS011;70114;47.690;8.898;2024-02-21T10:21:58;4.20;;;0.70;;
69207;SDS011;70114;47.690;8.898;2024-02-21T10:24:34;4.37;;;0.70;;
69207;SDS011;70114;47.690;8.898;2024-02-21T10:27:01;6.05;;;0.80;;
69207;SDS011;70114;47.690;8.898;2024-02-21T10:29:28;6.18;;;1.00;;
69207;SDS011;70114;47.690;8.898;2024-02-21T10:32:06;6.15;;;0.80;;
69207;SDS011;70114;47.690;8.898;2024-02-21T10:34:36;5.40;;;1.30;;
69207;SDS011;70114;47.690;8.898;2024-02-21T10:37:06;5.83;;;0.80;;
69207;SDS011;70114;47.690;8.898;2024-02-21T10:39:39;6.43;;;1.08;;
69207;SDS011;70114;47.690;8.898;2024-02-21T10:42:10;5.80;;;1.33;;
69207;SDS011;70114;47.690;8.898;2024-02-21T10:44:37;5.65;;;1.15;;
69207;SDS011;70114;47.690;8.898;2024-02-21T10:47:07;4.93;;;0.90;;
69207;SDS011;70114;47.690;8.898;2024-02-21T10:49:38;5.80;;;1.10;;
69207;SDS011;70114;47.690;8.898;2024-02-21T10:54:51;4.65;;;1.00;;
69207;SDS011;70114;47.690;8.898;2024-02-21T10:57:21;8.77;;;1.55;;
69207;SDS011;70114;47.690;8.898;2024-02-21T10:59:47;6.20;;;1.10;;
69207;SDS011;70114;47.690;8.898;2024-02-21T11:02:13;5.90;;;1.40;;
69207;SDS011;70114;47.690;8.898;2024-02-21T11:04:40;4.85;;;0.90;;
69207;SDS011;70114;47.690;8.898;2024-02-21T11:07:06;5.72;;;1.17;;
69207;SDS011;70114;47.690;8.898;2024-02-21T11:09:33;5.78;;;1.15;;
69207;SDS011;70114;47.690;8.898;2024-02-21T11:12:01;5.23;;;1.20;;
69207;SDS011;70114;47.690;8.898;2024-02-21T11:14:29;4.70;;;1.15;;
69207;SDS011;70114;47.690;8.898;2024-02-21T11:16:57;5.97;;;1.00;;
69207;SDS011;70114;47.690;8.898;2024-02-21T11:21:49;5.03;;;0.90;;
69207;SDS011;70114;47.690;8.898;2024-02-21T11:24:25;4.63;;;0.90;;
69207;SDS011;70114;47.690;8.898;2024-02-21T11:26:54;5.82;;;1.00;;
69207;SDS011;70114;47.690;8.898;2024-02-21T11:29:23;5.13;;;1.10;;
69207;SDS011;70114;47.690;8.898;2024-02-21T11:31:50;4.82;;;0.90;;
69207;SDS011;70114;47.690;8.898;2024-02-21T11:34:19;4.72;;;1.00;;
69207;SDS011;70114;47.690;8.898;2024-02-21T11:36:48;8.13;;;2.67;;
69207;SDS011;70114;47.690;8.898;2024-02-21T11:39:25;6.53;;;1.85;;
69207;SDS011;70114;47.690;8.898;2024-02-21T11:42:01;5.97;;;1.20;;
69207;SDS011;70114;47.690;8.898;2024-02-21T11:44:26;6.32;;;1.30;;
69207;SDS011;70114;47.690;8.898;2024-02-21T11:46:52;6.10;;;1.67;;
69207;SDS011;70114;47.690;8.898;2024-02-21T11:49:17;5.63;;;1.30;;
69207;SDS011;70114;47.690;8.898;2024-02-21T11:51:43;6.20;;;1.50;;
69207;SDS011;70114;47.690;8.898;2024-02-21T11:54:08;6.10;;;1.63;;
69207;SDS011;70114;47.690;8.898;2024-02-21T11:56:34;7.00;;;1.50;;
69207;SDS011;70114;47.690;8.898;2024-02-21T11:59:00;5.30;;;1.20;;
69207;SDS011;70114;47.690;8.898;2024-02-21T12:01:25;6.03;;;1.60;;
69207;SDS011;70114;47.690;8.898;2024-02-21T12:03:51;6.93;;;1.73;;
69207;SDS011;70114;47.690;8.898;2024-02-21T12:06:16;6.13;;;1.30;;
69207;SDS011;70114;47.690;8.898;2024-02-21T12:08:46;6.82;;;1.67;;
69207;SDS011;70114;47.690;8.898;2024-02-21T12:13:44;5.30;;;1.30;;
69207;SDS011;70114;47.690;8.898;2024-02-21T12:16:10;5.40;;;1.27;;
69207;SDS011;70114;47.690;8.898;2024-02-21T12:18:36;5.57;;;1.30;;
69207;SDS011;70114;47.690;8.898;2024-02-21T12:21:01;6.17;;;1.07;;
69207;SDS011;70114;47.690;8.898;2024-02-21T12:23:27;6.23;;;1.47;;
69207;SDS011;70114;47.690;8.898;2024-02-21T12:25:52;7.40;;;1.40;;
69207;SDS011;70114;47.690;8.898;2024-02-21T12:28:21;5.68;;;1.40;;
69207;SDS011;70114;47.690;8.898;2024-02-21T12:30:47;5.60;;;1.40;;
69207;SDS011;70114;47.690;8.898;2024-02-21T12:33:12;6.60;;;1.50;;
69207;SDS011;70114;47.690;8.898;2024-02-21T12:35:39;5.50;;;1.42;;
69207;SDS011;70114;47.690;8.898;2024-02-21T12:38:05;5.57;;;1.30;;
69207;SDS011;70114;47.690;8.898;2024-02-21T12:40:30;6.32;;;1.50;;
69207;SDS011;70114;47.690;8.898;2024-02-21T12:42:58;5.28;;;1.20;;
69207;SDS011;70114;47.690;8.898;2024-02-21T12:45:28;5.50;;;1.30;;
69207;SDS011;70114;47.690;8.898;2024-02-21T12:47:54;5.70;;;1.40;;
69207;SDS011;70114;47.690;8.898;2024-02-21T12:50:19;6.40;;;1.10;;
69207;SDS011;70114;47.690;8.898;2024-02-21T12:52:45;5.35;;;0.98;;
69207;SDS011;70114;47.690;8.898;2024-02-21T12:55:11;6.25;;;1.10;;
69207;SDS011;70114;47.690;8.898;2024-02-21T12:57:38;5.55;;;1.10;;
69207;SDS011;70114;47.690;8.898;2024-02-21T13:00:03;4.67;;;0.97;;
69207;SDS011;70114;47.690;8.898;2024-02-21T13:02:29;5.50;;;1.30;;
69207;SDS011;70114;47.690;8.898;2024-02-21T13:04:54;24.95;;;11.45;;
69207;SDS011;70114;47.690;8.898;2024-02-21T13:07:20;6.90;;;1.60;;
69207;SDS011;70114;47.690;8.898;2024-02-21T13:09:45;4.77;;;0.90;;
69207;SDS011;70114;47.690;8.898;2024-02-21T13:12:11;6.15;;;1.15;;
69207;SDS011;70114;47.690;8.898;2024-02-21T13:14:37;5.03;;;0.90;;
69207;SDS011;70114;47.690;8.898;2024-02-21T13:17:04;5.13;;;0.90;;
69207;SDS011;70114;47.690;8.898;2024-02-21T13:19:29;4.35;;;1.00;;
69207;SDS011;70114;47.690;8.898;2024-02-21T13:21:54;5.37;;;1.10;;
69207;SDS011;70114;47.690;8.898;2024-02-21T13:24:20;5.30;;;0.90;;
69207;SDS011;70114;47.690;8.898;2024-02-21T13:26:45;5.07;;;0.73;;
69207;SDS011;70114;47.690;8.898;2024-02-21T13:29:11;3.83;;;0.77;;
69207;SDS011;70114;47.690;8.898;2024-02-21T13:31:37;4.65;;;0.90;;
69207;SDS011;70114;47.690;8.898;2024-02-21T13:34:02;4.87;;;0.90;;
69207;SDS011;70114;47.690;8.898;2024-02-21T13:36:28;4.72;;;1.10;;
69207;SDS011;70114;47.690;8.898;2024-02-21T13:38:53;5.27;;;1.10;;
69207;SDS011;70114;47.690;8.898;2024-02-21T13:41:18;4.47;;;0.90;;
69207;SDS011;70114;47.690;8.898;2024-02-21T13:43:44;5.33;;;0.83;;
69207;SDS011;70114;47.690;8.898;2024-02-21T13:46:11;5.27;;;0.87;;
69207;SDS011;70114;47.690;8.898;2024-02-21T13:48:36;16.70;;;8.80;;
69207;SDS011;70114;47.690;8.898;2024-02-21T13:51:02;4.90;;;1.30;;
69207;SDS011;70114;47.690;8.898;2024-02-21T13:53:28;5.03;;;1.10;;
69207;SDS011;70114;47.690;8.898;2024-02-21T13:55:53;5.72;;;1.10;;
69207;SDS011;70114;47.690;8.898;2024-02-21T13:58:19;4.40;;;1.10;;
69207;SDS011;70114;47.690;8.898;2024-02-21T14:00:45;4.90;;;1.05;;
69207;SDS011;70114;47.690;8.898;2024-02-21T14:03:10;5.60;;;0.97;;
69207;SDS011;70114;47.690;8.898;2024-02-21T14:05:36;5.80;;;1.00;;
69207;SDS011;70114;47.690;8.898;2024-02-21T14:08:01;4.90;;;1.10;;
69207;SDS011;70114;47.690;8.898;2024-02-21T14:10:27;5.07;;;1.05;;
69207;SDS011;70114;47.690;8.898;2024-02-21T14:12:53;5.03;;;1.10;;
69207;SDS011;70114;47.690;8.898;2024-02-21T14:15:18;5.27;;;1.13;;
69207;SDS011;70114;47.690;8.898;2024-02-21T14:17:44;5.20;;;1.00;;
69207;SDS011;70114;47.690;8.898;2024-02-21T14:20:09;5.40;;;1.17;;
69207;SDS011;70114;47.690;8.898;2024-02-21T14:22:35;4.53;;;1.02;;
69207;SDS011;70114;47.690;8.898;2024-02-21T14:25:02;4.47;;;1.10;;
69207;SDS011;70114;47.690;8.898;2024-02-21T14:27:30;5.10;;;1.00;;
69207;SDS011;70114;47.690;8.898;2024-02-21T14:29:56;5.40;;;1.13;;
69207;SDS011;70114;47.690;8.898;2024-02-21T14:32:21;5.07;;;1.02;;
69207;SDS011;70114;47.690;8.898;2024-02-21T14:34:46;6.10;;;1.30;;
69207;SDS011;70114;47.690;8.898;2024-02-21T14:37:12;5.83;;;1.03;;
69207;SDS011;70114;47.690;8.898;2024-02-21T14:39:37;5.90;;;1.00;;
69207;SDS011;70114;47.690;8.898;2024-02-21T14:42:03;20.37;;;6.97;;
69207;SDS011;70114;47.690;8.898;2024-02-21T14:44:28;13.30;;;3.53;;
69207;SDS011;70114;47.690;8.898;2024-02-21T14:46:53;5.63;;;1.20;;